Time;durP1;ratioP1;P1;durP2;ratioP2;P2;SDS_P1;SDS_P2;PMS_P1;PMS_P2;Temp;Humidity;BMP_temperature;BMP_pressure;BME280_temperature;BME280_humidity;BME280_pressure;Samples;Min_cycle;Max_cycle;Signal;HPM_P1;HPM_P2
2024/03/26 00:00:40;;;;;;;15.63;5.35;;;2.30;99.90;;;5.39;100.00;99456.97;5053268;28;20045;-79
2024/03/26 00:03:05;;;;;;;13.73;4.90;;;2.30;99.90;;;5.43;100.00;99467.13;5019453;28;20071;-78
2024/03/26 00:05:31;;;;;;;7.55;4.38;;;2.30;99.90;;;5.23;100.00;99464.47;5036209;28;20117;-79
2024/03/26 00:07:57;;;;;;;10.23;4.18;;;2.20;99.90;;;5.15;100.00;99462.00;5035902;28;20119;-78
2024/03/26 00:10:23;;;;;;;10.07;3.85;;;2.10;99.90;;;5.15;100.00;99462.00;5054118;28;20469;-79
2024/03/26 00:12:50;;;;;;;14.98;4.82;;;2.10;99.90;;;5.00;100.00;99462.22;5035914;28;20037;-79
2024/03/26 00:15:16;;;;;;;12.05;4.25;;;2.00;99.90;;;4.92;100.00;99436.25;5036171;28;20058;-79
2024/03/26 00:17:42;;;;;;;15.45;4.65;;;2.00;99.90;;;4.99;100.00;99438.94;5053905;28;20097;-79
2024/03/26 00:20:08;;;;;;;17.30;4.70;;;2.00;99.90;;;5.17;100.00;99454.50;5053765;28;20126;-79
2024/03/26 00:22:34;;;;;;;10.63;4.60;;;2.00;99.90;;;5.28;100.00;99453.84;5052325;28;20068;-79
2024/03/26 00:24:59;;;;;;;14.23;4.97;;;2.00;99.90;;;5.14;100.00;99449.53;5053478;28;20392;-79
2024/03/26 00:27:25;;;;;;;15.18;4.65;;;2.00;99.90;;;5.00;100.00;99432.50;5035759;28;20041;-79
2024/03/26 00:29:51;;;;;;;14.45;4.80;;;1.90;99.90;;;4.92;100.00;99438.13;5053400;28;20156;-79
2024/03/26 00:32:17;;;;;;;15.80;4.90;;;1.90;99.90;;;5.12;100.00;99448.91;5053491;28;20041;-79
2024/03/26 00:34:42;;;;;;;16.95;5.75;;;2.00;99.90;;;5.03;100.00;99427.47;5019023;28;20073;-78
2024/03/26 00:37:08;;;;;;;17.90;5.53;;;2.00;99.90;;;5.09;100.00;99439.34;5053133;28;20041;-78
2024/03/26 00:39:34;;;;;;;17.05;5.65;;;2.10;99.90;;;5.13;100.00;99432.47;5034717;28;20045;-79
2024/03/26 00:41:59;;;;;;;16.75;6.13;;;2.10;99.90;;;5.18;100.00;99437.25;5053592;28;20397;-77
2024/03/26 00:44:25;;;;;;;16.65;5.78;;;2.20;99.90;;;5.23;100.00;99425.81;5053150;28;20043;-78
2024/03/26 00:46:51;;;;;;;16.75;5.75;;;2.20;99.90;;;5.50;100.00;99436.56;5053150;28;20439;-78
2024/03/26 00:49:16;;;;;;;20.52;5.82;;;2.30;99.90;;;5.54;100.00;99425.06;5053530;28;20033;-78
2024/03/26 00:51:44;;;;;;;16.90;5.93;;;2.50;99.90;;;5.58;100.00;99418.22;5035309;28;20041;-78
2024/03/26 00:54:13;;;;;;;16.00;5.00;;;2.60;99.90;;;5.61;100.00;99425.06;5053169;28;20432;-78
2024/03/26 00:56:41;;;;;;;15.57;5.35;;;2.60;99.90;;;5.58;100.00;99420.91;5035580;28;20603;-78
2024/03/26 00:59:07;;;;;;;17.83;5.28;;;2.60;99.90;;;5.64;100.00;99411.09;5054055;28;20053;-78
2024/03/26 01:01:33;;;;;;;15.93;5.10;;;2.70;99.90;;;5.58;100.00;99426.34;5054931;28;20057;-78
2024/03/26 01:03:58;;;;;;;13.38;4.47;;;2.60;99.90;;;5.67;100.00;99418.78;5055954;28;20033;-78
2024/03/26 01:06:24;;;;;;;14.45;5.10;;;2.70;99.90;;;5.66;100.00;99406.28;5039607;28;20033;-78
2024/03/26 01:08:50;;;;;;;14.38;4.82;;;2.70;99.90;;;5.56;100.00;99412.16;5055344;28;20032;-78
2024/03/26 01:11:15;;;;;;;16.75;4.93;;;2.70;99.90;;;5.47;100.00;99408.03;5039920;28;20093;-79
2024/03/26 01:13:41;;;;;;;11.65;5.30;;;2.60;99.90;;;5.43;100.00;99402.22;5039368;28;20033;-79
2024/03/26 01:16:07;;;;;;;16.77;5.38;;;2.60;99.90;;;5.43;100.00;99398.69;5057234;28;20465;-78
2024/03/26 01:18:33;;;;;;;13.40;5.05;;;2.60;99.90;;;5.45;100.00;99399.31;5053156;28;20041;-78
2024/03/26 01:20:59;;;;;;;16.85;5.50;;;2.60;99.90;;;5.40;100.00;99388.31;5034785;28;20033;-79
2024/03/26 01:23:25;;;;;;;12.15;5.13;;;2.60;99.90;;;5.45;100.00;99391.19;5051365;28;20045;-78
2024/03/26 01:25:50;;;;;;;16.52;4.90;;;2.60;99.90;;;5.50;100.00;99390.56;5052541;28;20049;-79
2024/03/26 01:28:16;;;;;;;14.27;4.72;;;2.60;99.90;;;5.44;100.00;99381.41;5018371;28;20041;-79
2024/03/26 01:30:42;;;;;;;14.63;5.43;;;2.50;99.90;;;5.36;100.00;99378.97;5052362;28;20044;-79
2024/03/26 01:33:07;;;;;;;17.20;6.07;;;2.50;99.90;;;5.25;100.00;99377.75;5034469;28;20445;-79
2024/03/26 01:35:33;;;;;;;14.02;5.43;;;2.50;99.90;;;5.14;100.00;99368.41;5052172;28;20082;-78
2024/03/26 01:37:59;;;;;;;14.52;5.82;;;2.40;99.90;;;5.20;100.00;99380.28;5034224;28;20473;-78
2024/03/26 01:40:24;;;;;;;14.02;5.40;;;2.40;99.90;;;5.21;100.00;99371.09;5052153;28;20392;-78
2024/03/26 01:42:51;;;;;;;13.82;5.40;;;2.30;99.90;;;5.26;100.00;99368.59;5051973;28;20033;-79
2024/03/26 01:45:17;;;;;;;15.75;6.38;;;2.40;99.90;;;5.22;100.00;99375.47;5051975;28;20041;-79
2024/03/26 01:47:42;;;;;;;19.10;6.07;;;2.30;99.90;;;5.20;100.00;99364.03;5034128;28;20043;-77
2024/03/26 01:50:12;;;;;;;16.20;6.75;;;2.30;99.90;;;5.33;100.00;99364.81;5033658;28;20120;-79
2024/03/26 01:52:39;;;;;;;13.95;6.28;;;2.30;99.90;;;5.21;100.00;99357.59;5051883;28;20048;-79
2024/03/26 01:55:07;;;;;;;16.98;5.53;;;2.30;99.90;;;5.28;100.00;99361.09;5052155;28;20040;-79
2024/03/26 01:57:35;;;;;;;13.60;5.65;;;2.30;99.90;;;5.38;100.00;99368.75;5034144;28;20480;-78
2024/03/26 02:00:03;;;;;;;18.48;6.15;;;2.20;99.90;;;5.30;100.00;99353.59;5051824;28;20052;-79
2024/03/26 02:02:37;;;;;;;16.67;6.50;;;2.30;99.90;;;5.33;100.00;99353.16;5051768;28;20191;-78
2024/03/26 02:05:03;;;;;;;17.48;6.80;;;2.30;99.90;;;5.26;100.00;99353.19;5051926;28;20128;-78
2024/03/26 02:07:29;;;;;;;18.35;6.13;;;2.30;99.90;;;5.17;100.00;99336.38;5033909;28;20040;-78
2024/03/26 02:09:55;;;;;;;14.85;6.38;;;2.30;99.90;;;5.22;100.00;99335.72;5051913;28;20033;-78
2024/03/26 02:12:21;;;;;;;19.75;6.55;;;2.30;99.90;;;5.28;100.00;99351.09;5051735;28;20044;-79
2024/03/26 02:14:47;;;;;;;12.23;5.43;;;2.30;99.90;;;5.31;100.00;99342.56;5051836;28;20396;-79
2024/03/26 02:17:12;;;;;;;16.27;6.25;;;2.30;99.90;;;5.31;100.00;99334.47;5034069;28;20083;-78
2024/03/26 02:19:38;;;;;;;16.30;6.00;;;2.30;99.90;;;5.25;100.00;99331.78;5051708;28;20037;-78
2024/03/26 02:22:04;;;;;;;14.60;5.63;;;2.30;99.90;;;5.24;100.00;99341.75;5051807;28;20037;-79
2024/03/26 02:24:32;;;;;;;18.98;5.70;;;2.30;99.90;;;5.22;100.00;99326.81;5051533;28;20037;-79
2024/03/26 02:26:59;;;;;;;13.90;5.72;;;2.20;99.90;;;5.04;100.00;99317.50;5050282;28;20053;-79
2024/03/26 02:29:25;;;;;;;14.82;5.72;;;2.20;99.90;;;5.01;100.00;99318.75;5031815;28;20353;-78
2024/03/26 02:31:50;;;;;;;13.95;5.30;;;2.20;99.90;;;5.00;100.00;99321.66;5031770;28;20030;-79
2024/03/26 02:34:16;;;;;;;19.30;6.30;;;2.10;99.90;;;5.06;100.00;99323.50;5031784;28;20037;-78
2024/03/26 02:36:42;;;;;;;12.50;5.50;;;2.10;99.90;;;4.98;100.00;99312.94;5031698;28;20037;-79
2024/03/26 02:39:08;;;;;;;15.13;6.18;;;2.10;99.90;;;4.97;100.00;99314.81;5031794;28;20053;-79
2024/03/26 02:41:35;;;;;;;16.13;6.32;;;2.10;99.90;;;4.99;100.00;99314.59;5047062;28;20037;-79
2024/03/26 02:44:01;;;;;;;15.43;5.30;;;2.00;99.90;;;5.02;100.00;99320.41;5030730;28;20056;-79
2024/03/26 02:46:27;;;;;;;14.23;5.93;;;2.00;99.90;;;5.00;100.00;99317.06;5046785;28;20071;-79
2024/03/26 02:48:53;;;;;;;16.02;5.82;;;2.00;99.90;;;5.03;100.00;99303.13;5014039;28;20029;-79
2024/03/26 02:51:18;;;;;;;16.33;6.20;;;2.00;99.90;;;5.00;100.00;99308.97;5013757;28;20040;-78
2024/03/26 02:53:44;;;;;;;21.90;6.78;;;2.00;99.90;;;5.00;100.00;99306.25;5031287;28;20037;-79
2024/03/26 02:56:10;;;;;;;19.80;6.13;;;2.00;99.90;;;5.09;100.00;99306.88;5031542;28;20033;-79
2024/03/26 02:58:35;;;;;;;16.17;6.55;;;2.00;99.90;;;5.03;100.00;99300.44;5013277;28;20034;-79
2024/03/26 03:01:12;;;;;;;15.82;6.68;;;2.00;99.90;;;5.11;100.00;99307.47;5013941;28;20557;-79
2024/03/26 03:03:39;;;;;;;15.88;6.22;;;1.90;99.90;;;4.87;100.00;99306.31;5034823;28;20140;-79
2024/03/26 03:06:08;;;;;;;17.25;6.03;;;1.90;99.90;;;4.82;100.00;99298.03;5035070;28;20089;-79
2024/03/26 03:08:36;;;;;;;16.65;6.43;;;1.80;99.90;;;4.74;100.00;99301.78;5034980;28;20034;-79
2024/03/26 03:11:02;;;;;;;19.25;6.10;;;1.70;99.90;;;4.68;100.00;99291.81;5034933;28;20131;-79
2024/03/26 03:13:27;;;;;;;15.90;5.75;;;1.70;99.90;;;4.67;100.00;99295.56;5034875;28;20041;-79
2024/03/26 03:15:53;;;;;;;15.55;6.55;;;1.80;99.90;;;4.67;100.00;99290.97;5017189;28;20057;-79
2024/03/26 03:18:20;;;;;;;14.70;6.25;;;1.80;99.90;;;4.82;100.00;99298.03;5016992;28;20040;-79
2024/03/26 03:20:46;;;;;;;14.25;6.00;;;1.80;99.90;;;4.87;100.00;99295.50;5034809;28;20120;-79
2024/03/26 03:23:13;;;;;;;13.52;5.05;;;1.80;99.90;;;4.78;100.00;99281.41;5017102;28;20049;-80
2024/03/26 03:25:39;;;;;;;13.57;5.60;;;1.80;99.90;;;4.73;100.00;99292.84;5034640;28;20047;-79
2024/03/26 03:28:06;;;;;;;18.70;6.13;;;1.80;99.90;;;4.88;100.00;99273.66;5034656;28;20122;-79
2024/03/26 03:30:32;;;;;;;11.35;5.70;;;1.70;99.90;;;4.92;100.00;99282.19;5034498;28;20549;-79
2024/03/26 03:32:58;;;;;;;16.27;5.75;;;1.70;99.90;;;4.68;100.00;99259.41;5034700;28;20117;-79
2024/03/26 03:35:24;;;;;;;12.43;5.28;;;1.60;99.90;;;4.75;100.00;99266.44;5034574;28;20048;-79
2024/03/26 03:37:51;;;;;;;15.05;5.90;;;1.70;99.90;;;4.86;100.00;99274.94;5034352;28;20037;-79
2024/03/26 03:40:17;;;;;;;18.00;5.78;;;1.70;99.90;;;4.78;100.00;99281.41;5034492;28;20090;-79
2024/03/26 03:42:44;;;;;;;17.20;5.97;;;1.60;99.90;;;4.77;100.00;99273.50;5049648;28;20029;-79
2024/03/26 03:45:10;;;;;;;17.58;6.30;;;1.70;99.90;;;4.77;100.00;99268.09;5034452;28;20083;-79
2024/03/26 03:47:35;;;;;;;14.93;5.53;;;1.70;99.90;;;4.78;100.00;99264.38;5034409;28;20045;-79
2024/03/26 03:50:01;;;;;;;13.48;6.20;;;1.70;99.90;;;4.87;100.00;99268.47;5016396;28;20068;-79
2024/03/26 03:52:27;;;;;;;18.67;7.32;;;1.80;99.90;;;4.79;100.00;99250.63;5016545;28;20030;-79
2024/03/26 03:54:52;;;;;;;19.90;6.45;;;1.80;99.90;;;4.77;100.00;99251.88;5034118;28;20365;-79
2024/03/26 03:57:19;;;;;;;15.27;6.03;;;1.80;99.90;;;4.96;100.00;99250.97;5034145;28;20477;-80
2024/03/26 03:59:44;;;;;;;14.00;5.70;;;1.90;99.90;;;4.79;100.00;99250.63;5033879;28;20053;-80
2024/03/26 04:02:11;;;;;;;18.88;6.57;;;1.80;99.90;;;4.85;100.00;99254.34;5033896;28;20060;-79
2024/03/26 04:04:37;;;;;;;20.40;5.83;;;1.90;99.90;;;4.68;100.00;99226.97;5033946;28;20076;-79
2024/03/26 04:07:03;;;;;;;15.07;6.20;;;1.90;99.90;;;4.78;100.00;99231.94;4999799;28;20045;-79
2024/03/26 04:09:28;;;;;;;16.00;5.78;;;1.90;99.90;;;4.71;100.00;99230.06;5033900;28;20049;-79
2024/03/26 04:11:54;;;;;;;14.85;6.28;;;1.90;99.90;;;4.73;100.00;99230.69;5034174;28;20049;-79
2024/03/26 04:14:20;;;;;;;15.02;6.28;;;1.90;99.90;;;4.75;100.00;99231.28;5033885;28;20034;-79
2024/03/26 04:16:46;;;;;;;14.80;6.10;;;1.90;99.90;;;4.67;100.00;99203.72;5033875;28;20038;-79
2024/03/26 04:19:15;;;;;;;13.60;6.25;;;1.90;99.90;;;4.61;100.00;99197.28;5049566;28;20041;-79
2024/03/26 04:21:41;;;;;;;17.83;6.30;;;1.90;99.90;;;4.55;100.00;99184.63;5020196;28;20056;-80
2024/03/26 04:24:07;;;;;;;16.33;6.82;;;1.90;99.90;;;4.68;100.00;99206.19;5040015;28;20045;-79
2024/03/26 04:26:34;;;;;;;18.02;6.57;;;1.90;99.90;;;4.76;100.00;99199.72;5036922;28;20052;-79
2024/03/26 04:29:00;;;;;;;14.93;5.88;;;1.90;99.90;;;4.80;100.00;99194.72;5015656;28;20037;-78
2024/03/26 04:31:25;;;;;;;20.23;6.70;;;1.90;99.90;;;4.74;100.00;99191.81;5048754;28;20045;-79
2024/03/26 04:33:51;;;;;;;15.38;6.82;;;1.90;99.90;;;4.77;100.00;99190.56;5033152;28;20095;-79
2024/03/26 04:36:17;;;;;;;20.02;7.03;;;1.90;99.90;;;4.72;100.00;99180.41;5015685;28;20504;-79
2024/03/26 04:38:43;;;;;;;15.73;7.13;;;1.90;99.90;;;4.66;100.00;99183.16;5033141;28;20045;-79
2024/03/26 04:41:08;;;;;;;16.25;6.78;;;1.90;99.90;;;4.61;100.00;99199.97;5033370;28;20041;-78
2024/03/26 04:43:34;;;;;;;20.17;6.90;;;1.80;99.90;;;4.57;100.00;99191.47;5033067;28;20401;-78
2024/03/26 04:46:00;;;;;;;16.52;6.88;;;1.80;99.90;;;4.47;100.00;99173.00;5032949;28;20095;-79
2024/03/26 04:48:25;;;;;;;14.73;6.93;;;1.70;99.90;;;4.40;100.00;99161.41;5015850;28;20071;-79
2024/03/26 04:50:51;;;;;;;14.85;7.20;;;1.80;99.90;;;4.60;100.00;99182.13;5015640;28;20503;-79
2024/03/26 04:53:17;;;;;;;17.85;6.85;;;1.80;99.90;;;4.61;100.00;99172.97;5032887;28;20033;-78
2024/03/26 04:55:43;;;;;;;17.40;7.40;;;1.70;99.90;;;4.64;100.00;99172.53;5032981;28;20413;-78
2024/03/26 04:58:08;;;;;;;16.30;7.20;;;1.80;99.90;;;4.69;100.00;99167.31;5032981;28;20484;-79
2024/03/26 05:00:34;;;;;;;15.40;7.43;;;1.80;99.90;;;4.72;100.00;99169.59;5032667;28;20049;-79
2024/03/26 05:03:00;;;;;;;15.20;6.70;;;1.80;99.90;;;4.72;100.00;99169.59;5032811;28;20496;-79
2024/03/26 05:05:26;;;;;;;19.92;6.97;;;1.80;99.90;;;4.63;100.00;99160.06;5032795;28;20033;-78
2024/03/26 05:07:52;;;;;;;16.23;7.05;;;1.80;99.90;;;4.58;100.00;99162.59;5032766;28;20353;-79
2024/03/26 05:10:17;;;;;;;14.25;7.07;;;1.80;99.90;;;4.70;100.00;99160.88;5033123;28;20048;-79
2024/03/26 05:12:44;;;;;;;17.23;6.93;;;1.80;99.90;;;4.77;100.00;99158.16;5015087;28;20053;-78
2024/03/26 05:15:10;;;;;;;17.45;7.47;;;1.80;99.90;;;4.62;100.00;99147.63;5032758;28;20568;-79
2024/03/26 05:17:35;;;;;;;13.88;6.78;;;1.80;99.90;;;4.67;100.00;99161.31;5032962;28;20033;-78
2024/03/26 05:20:01;;;;;;;17.08;7.18;;;1.80;99.90;;;4.66;100.00;99153.44;5032649;28;20094;-78
2024/03/26 05:22:27;;;;;;;17.85;7.38;;;1.80;99.90;;;4.75;100.00;99163.75;5032581;28;20040;-78
2024/03/26 05:24:53;;;;;;;15.93;7.50;;;1.80;99.90;;;4.64;100.00;99144.69;5032376;28;20097;-78
2024/03/26 05:27:19;;;;;;;14.82;7.38;;;1.80;99.90;;;4.79;100.00;99156.06;5032555;28;20045;-79
2024/03/26 05:29:44;;;;;;;17.13;8.20;;;1.90;99.90;;;4.68;100.00;99137.81;5032824;28;20510;-79
2024/03/26 05:32:10;;;;;;;16.75;7.13;;;1.90;99.90;;;4.67;100.00;99128.88;5032346;28;20069;-78
2024/03/26 05:34:36;;;;;;;18.05;7.20;;;1.90;99.90;;;4.78;100.00;99137.38;5032273;28;20143;-79
2024/03/26 05:37:02;;;;;;;20.05;7.88;;;1.90;99.90;;;4.66;100.00;99121.00;5032616;28;20067;-78
2024/03/26 05:39:28;;;;;;;17.23;8.13;;;1.80;99.90;;;4.65;100.00;99132.88;5014626;28;20041;-79
2024/03/26 05:41:53;;;;;;;20.27;7.85;;;1.80;99.90;;;4.55;100.00;99093.63;5033444;28;20060;-77
2024/03/26 05:44:19;;;;;;;19.98;8.15;;;1.90;99.90;;;4.67;100.00;99112.66;5032433;28;20044;-78
2024/03/26 05:46:45;;;;;;;14.15;7.50;;;1.90;99.90;;;4.82;100.00;99116.97;5015113;28;20515;-78
2024/03/26 05:49:10;;;;;;;21.85;8.30;;;1.90;99.90;;;4.84;100.00;99117.59;5048461;28;20087;-78
2024/03/26 05:51:36;;;;;;;15.70;7.78;;;1.90;99.90;;;4.83;100.00;99105.13;5033457;28;20473;-79
2024/03/26 05:54:02;;;;;;;21.02;7.55;;;2.00;99.90;;;4.97;100.00;99108.56;5015884;28;20041;-79
2024/03/26 05:56:28;;;;;;;15.27;7.38;;;2.00;99.90;;;5.02;100.00;99106.84;5020341;28;20124;-78
2024/03/26 05:58:54;;;;;;;14.15;7.20;;;2.10;99.90;;;5.11;100.00;99109.31;5019790;28;20508;-79
2024/03/26 06:01:21;;;;;;;19.90;7.82;;;2.10;99.90;;;5.23;100.00;99104.84;5037864;28;20042;-78
2024/03/26 06:03:46;;;;;;;14.55;7.45;;;2.10;99.90;;;5.32;100.00;99098.13;5021525;28;20033;-79
2024/03/26 06:06:12;;;;;;;17.70;7.65;;;2.20;99.90;;;5.50;100.00;99101.91;5034732;28;20033;-78
2024/03/26 06:08:38;;;;;;;14.23;7.50;;;2.30;99.90;;;5.58;100.00;99085.44;5034019;28;20503;-79
2024/03/26 06:11:04;;;;;;;20.02;7.70;;;2.30;99.90;;;5.57;100.00;99091.88;5032155;28;20094;-78
2024/03/26 06:13:29;;;;;;;14.95;7.63;;;2.30;99.90;;;5.40;100.00;99078.06;5032004;28;20041;-79
2024/03/26 06:16:05;;;;;;;16.00;8.15;;;2.30;99.90;;;5.43;100.00;99082.22;5031977;28;20041;-79
2024/03/26 06:18:31;;;;;;;16.77;8.07;;;2.40;99.90;;;5.39;100.00;99086.41;5031812;28;20512;-78
2024/03/26 06:20:57;;;;;;;20.33;7.90;;;2.50;99.90;;;5.58;100.00;99085.44;5014241;28;20033;-78
2024/03/26 06:23:23;;;;;;;18.70;7.78;;;2.70;99.90;;;5.93;100.00;99081.31;5031825;28;20473;-78
2024/03/26 06:25:49;;;;;;;15.85;7.88;;;2.80;99.90;;;6.19;100.00;99073.97;5031746;28;20084;-79
2024/03/26 06:28:15;;;;;;;18.20;7.75;;;2.90;99.90;;;7.16;100.00;99068.69;5047283;28;20038;-78
2024/03/26 06:30:41;;;;;;;16.00;7.55;;;3.10;99.90;;;7.12;96.56;99054.78;5013707;28;20536;-79
2024/03/26 06:33:06;;;;;;;17.17;8.38;;;3.20;99.90;;;6.92;95.39;99068.66;5031676;28;20041;-78
2024/03/26 06:35:32;;;;;;;18.65;8.07;;;3.40;99.90;;;6.52;100.00;99072.75;5031637;28;20083;-79
2024/03/26 06:37:58;;;;;;;16.73;7.63;;;3.60;99.90;;;6.80;98.08;99065.06;5034364;28;20124;-79
2024/03/26 06:40:23;;;;;;;15.43;7.97;;;3.70;99.90;;;6.88;98.82;99078.28;5035423;28;20045;-79
2024/03/26 06:42:49;;;;;;;14.25;7.43;;;3.90;99.90;;;6.84;97.34;99085.22;5035382;28;20038;-79
2024/03/26 06:45:15;;;;;;;13.57;7.28;;;4.10;99.90;;;6.93;96.67;99083.03;5035391;28;20033;-79
2024/03/26 06:47:41;;;;;;;11.23;6.57;;;4.20;99.90;;;7.05;95.46;99100.16;5035195;28;20603;-79
2024/03/26 06:50:07;;;;;;;13.43;6.55;;;4.40;99.90;;;7.45;95.98;99090.56;5035453;28;20028;-79
2024/03/26 06:52:32;;;;;;;12.23;6.72;;;4.40;99.90;;;7.54;92.46;99093.75;5017566;28;20489;-79
2024/03/26 06:54:58;;;;;;;12.18;6.47;;;4.60;99.90;;;7.48;94.57;99090.91;5035006;28;20113;-79
2024/03/26 06:57:25;;;;;;;14.65;6.78;;;4.70;99.90;;;7.68;92.02;99088.91;5036348;28;20049;-78
2024/03/26 06:59:50;;;;;;;11.55;7.28;;;4.80;99.90;;;7.61;89.54;99080.91;5018510;28;20528;-78
2024/03/26 07:02:16;;;;;;;13.90;7.13;;;4.90;99.90;;;7.95;89.24;99078.41;5017595;28;20037;-78
2024/03/26 07:04:42;;;;;;;13.48;7.22;;;5.00;99.90;;;8.30;84.54;99076.69;5035100;28;20124;-79
2024/03/26 07:07:08;;;;;;;21.17;8.30;;;5.20;99.90;;;8.07;83.98;99076.50;5035012;28;20029;-79
2024/03/26 07:09:38;;;;;;;15.52;7.25;;;5.30;99.90;;;8.16;83.72;99071.50;5017046;28;20497;-79
2024/03/26 07:12:04;;;;;;;14.80;6.47;;;5.40;99.90;;;8.28;85.50;99060.63;5017612;28;20056;-79
2024/03/26 07:14:30;;;;;;;18.92;7.57;;;5.50;99.90;;;8.02;83.92;99049.22;5035135;28;20037;-79
2024/03/26 07:16:56;;;;;;;12.90;6.60;;;5.50;99.90;;;8.08;84.73;99055.59;5018440;28;20040;-78
2024/03/26 07:19:22;;;;;;;11.80;6.63;;;5.50;99.90;;;8.04;82.41;99043.56;5036159;28;20034;-79
2024/03/26 07:21:47;;;;;;;11.93;7.00;;;5.50;99.90;;;8.15;82.16;99048.13;5035032;28;20035;-79
2024/03/26 07:24:13;;;;;;;13.30;6.05;;;5.60;99.90;;;8.27;80.91;99052.72;5001073;28;20049;-79
2024/03/26 07:26:39;;;;;;;13.25;6.93;;;5.60;99.90;;;8.33;84.44;99054.47;5034834;28;20045;-79
2024/03/26 07:29:04;;;;;;;11.43;6.95;;;5.70;99.90;;;8.48;83.85;99052.03;5035052;28;20037;-80
2024/03/26 07:31:30;;;;;;;15.20;6.65;;;5.80;99.90;;;8.42;81.74;99046.78;5034953;28;20044;-80
2024/03/26 07:33:56;;;;;;;14.95;6.95;;;5.80;99.90;;;8.45;80.80;99036.22;5035002;28;20033;-79
2024/03/26 07:36:21;;;;;;;13.68;6.35;;;5.80;99.90;;;8.61;81.14;99029.22;5033750;28;20037;-79
2024/03/26 07:38:47;;;;;;;17.73;7.82;;;5.90;99.90;;;8.72;80.64;99035.66;5017035;28;20099;-80
2024/03/26 07:41:13;;;;;;;12.45;6.50;;;6.00;99.90;;;8.86;79.33;99029.94;5034782;28;20051;-80
2024/03/26 07:43:38;;;;;;;13.43;7.00;;;6.20;99.90;;;8.85;76.83;99025.56;5034677;28;20071;-79
2024/03/26 07:46:04;;;;;;;11.32;5.85;;;6.20;99.90;;;8.78;75.74;99004.78;5034551;28;20042;-81
2024/03/26 07:48:30;;;;;;;10.95;6.22;;;6.30;99.90;;;8.95;75.65;99009.41;5034147;28;20030;-81
2024/03/26 07:50:56;;;;;;;12.25;6.25;;;6.30;99.90;;;9.14;75.79;99023.59;5034831;28;20037;-82
2024/03/26 07:53:22;;;;;;;13.02;6.28;;;6.50;99.90;;;9.04;73.47;99010.66;5034681;28;20033;-81
2024/03/26 07:55:49;;;;;;;9.35;5.70;;;6.50;99.90;;;8.82;71.46;98985.28;5034438;28;20038;-81
2024/03/26 07:58:14;;;;;;;14.13;6.32;;;6.40;99.90;;;8.99;73.70;98994.25;5016995;28;20045;-79
2024/03/26 08:00:41;;;;;;;13.70;6.43;;;6.40;99.90;;;9.09;74.26;98998.22;5016407;28;20075;-80
2024/03/26 08:03:06;;;;;;;12.35;6.43;;;6.50;99.90;;;9.10;73.99;98978.09;5034440;28;20088;-80
2024/03/26 08:05:32;;;;;;;14.85;6.78;;;6.50;99.90;;;9.02;73.21;98976.63;5016772;28;20045;-80
2024/03/26 08:07:58;;;;;;;13.48;6.15;;;6.50;99.90;;;9.19;73.96;98982.88;5039380;28;20489;-79
2024/03/26 08:10:23;;;;;;;12.52;6.63;;;6.60;99.90;;;9.46;74.03;98976.75;5034412;28;20049;-80
2024/03/26 08:12:50;;;;;;;9.32;6.05;;;6.80;99.90;;;9.35;71.70;98950.44;5034333;28;20045;-82
2024/03/26 08:15:17;;;;;;;11.35;5.68;;;6.90;99.90;;;9.79;73.14;98969.56;5034498;28;20103;-80
2024/03/26 08:17:43;;;;;;;11.67;5.93;;;7.10;99.90;;;9.95;72.81;98950.69;5034234;28;20038;-81
2024/03/26 08:20:09;;;;;;;11.70;5.25;;;7.40;99.90;;;10.46;70.48;98950.44;5035655;28;20048;-79
2024/03/26 08:22:37;;;;;;;10.38;5.25;;;7.70;99.90;;;10.55;66.06;98936.34;5036269;28;20053;-82
2024/03/26 08:25:05;;;;;;;9.73;4.88;;;7.90;99.90;;;10.46;63.65;98917.72;5016438;28;20037;-80
2024/03/26 08:27:31;;;;;;;11.30;5.07;;;8.00;99.90;;;10.66;63.58;98916.28;5034035;28;20041;-81
2024/03/26 08:29:58;;;;;;;9.80;5.60;;;8.10;99.90;;;10.87;64.12;98932.78;5034144;28;20033;-80
2024/03/26 08:32:24;;;;;;;10.63;5.07;;;8.20;99.90;;;10.87;61.61;98908.22;5033836;28;20527;-81
2024/03/26 08:34:50;;;;;;;6.70;4.43;;;8.30;99.90;;;10.89;62.18;98917.81;5033884;28;20041;-79
2024/03/26 08:37:15;;;;;;;10.55;5.10;;;8.20;99.90;;;10.90;62.58;98916.72;5033929;28;20375;-80
2024/03/26 08:39:42;;;;;;;10.43;5.35;;;8.30;99.90;;;11.07;63.82;98926.69;5033823;28;20493;-82
2024/03/26 08:42:09;;;;;;;9.20;5.07;;;8.40;99.90;;;11.08;63.71;98917.41;5033786;28;20037;-81
2024/03/26 08:44:35;;;;;;;9.20;5.05;;;8.40;99.90;;;11.29;62.97;98912.09;5034454;28;20052;-79
2024/03/26 08:47:01;;;;;;;10.02;5.13;;;8.60;99.90;;;11.42;61.87;98899.88;5033739;28;20033;-81
2024/03/26 08:49:26;;;;;;;10.15;5.32;;;8.70;99.90;;;11.70;62.37;98906.00;5033719;28;20033;-80
2024/03/26 08:51:52;;;;;;;11.02;5.40;;;8.90;99.90;;;11.86;60.49;98894.03;5033742;28;20476;-81
2024/03/26 08:54:18;;;;;;;10.68;5.03;;;9.10;99.90;;;12.12;60.54;98904.25;5015979;28;20488;-81
2024/03/26 08:56:44;;;;;;;8.52;4.60;;;9.30;99.90;;;12.17;57.56;98880.47;5033783;28;20037;-80
2024/03/26 08:59:09;;;;;;;7.40;4.00;;;9.50;99.90;;;11.94;56.49;98871.66;5032572;28;20045;-80
2024/03/26 09:01:35;;;;;;;9.48;4.25;;;9.40;99.90;;;12.18;57.40;98890.31;5033696;28;20044;-82
2024/03/26 09:04:01;;;;;;;9.02;3.80;;;9.50;99.90;;;12.22;56.39;98877.75;5016189;28;20048;-83
2024/03/26 09:06:26;;;;;;;7.35;3.92;;;9.60;99.90;;;12.37;57.34;98887.06;5018078;28;20052;-80
2024/03/26 09:08:52;;;;;;;9.63;4.45;;;9.70;99.90;;;12.78;57.25;98886.25;5038778;28;20120;-80
2024/03/26 09:11:19;;;;;;;7.20;3.72;;;9.90;99.90;;;12.68;53.84;98858.91;5034515;28;20045;-82
2024/03/26 09:13:44;;;;;;;7.25;3.80;;;10.10;99.90;;;12.53;52.50;98852.34;5034385;28;20037;-82
2024/03/26 09:16:10;;;;;;;7.93;3.78;;;10.10;99.90;;;12.61;54.11;98867.38;5016824;28;20056;-82
2024/03/26 09:18:37;;;;;;;7.25;3.88;;;10.10;99.90;;;12.40;55.18;98870.09;5034133;28;20037;-81
2024/03/26 09:21:03;;;;;;;9.68;4.55;;;10.00;99.90;;;12.59;56.32;98894.19;5034543;28;20473;-82
2024/03/26 09:23:28;;;;;;;8.55;4.47;;;10.00;99.90;;;12.63;55.59;98881.59;5017229;28;20033;-82
2024/03/26 09:25:54;;;;;;;11.40;4.85;;;10.10;99.90;;;12.18;55.26;98862.97;5004212;28;20152;-81
2024/03/26 09:28:20;;;;;;;14.38;4.70;;;9.90;99.90;;;12.11;54.32;98856.94;5039175;28;20041;-82
2024/03/26 09:30:51;;;;;;;7.97;4.03;;;9.70;99.90;;;12.55;55.32;98860.28;5037406;28;20076;-83
2024/03/26 09:33:21;;;;;;;8.18;4.05;;;9.90;99.90;;;12.55;56.07;98860.28;5049161;28;20109;-82
2024/03/26 09:35:47;;;;;;;6.82;3.78;;;10.00;99.90;;;12.40;54.13;98845.50;5033143;28;20481;-80
2024/03/26 09:38:13;;;;;;;7.43;4.28;;;10.00;99.90;;;12.08;52.94;98830.16;5033258;28;20034;-82
2024/03/26 09:40:39;;;;;;;7.18;3.60;;;9.80;99.90;;;12.08;53.53;98836.47;5032952;28;20446;-81
2024/03/26 09:43:09;;;;;;;8.13;3.97;;;9.70;99.90;;;12.11;53.55;98828.81;4998811;28;20052;-81
2024/03/26 09:45:37;;;;;;;8.70;4.30;;;9.80;99.90;;;12.24;55.50;98839.19;5032754;28;20473;-81
2024/03/26 09:48:05;;;;;;;7.60;4.60;;;9.80;99.90;;;12.46;57.04;98849.06;5032816;28;20122;-81
2024/03/26 09:50:32;;;;;;;10.35;5.32;;;9.90;99.90;;;12.80;56.83;98837.53;5014926;28;20087;-80
2024/03/26 09:52:59;;;;;;;8.88;4.60;;;10.10;99.90;;;12.91;57.25;98841.91;5014991;28;20447;-81
2024/03/26 09:55:28;;;;;;;9.45;4.38;;;10.30;99.90;;;12.61;54.40;98799.00;5014943;28;20499;-80
2024/03/26 09:57:54;;;;;;;7.50;4.80;;;10.20;99.90;;;12.58;56.50;98814.03;5032756;28;20049;-81
2024/03/26 10:00:20;;;;;;;7.00;4.18;;;10.20;99.90;;;12.41;55.50;98808.84;5032429;28;20537;-81
2024/03/26 10:02:47;;;;;;;9.10;4.55;;;10.20;99.90;;;12.38;54.90;98801.19;5032631;28;20048;-81
2024/03/26 10:05:17;;;;;;;8.80;4.18;;;10.20;99.90;;;12.17;56.73;98787.53;5032462;28;20374;-81
2024/03/26 10:07:46;;;;;;;7.07;4.45;;;10.00;99.90;;;12.60;55.97;98808.31;5032590;28;20164;-81
2024/03/26 10:10:13;;;;;;;7.50;4.60;;;10.00;99.90;;;12.70;54.71;98797.34;5015282;28;20501;-80
2024/03/26 10:12:42;;;;;;;9.98;4.45;;;10.30;99.90;;;13.80;54.27;98804.09;5051986;28;20056;-81
2024/03/26 10:15:08;;;;;;;6.47;4.50;;;;;;;14.22;52.76;98797.19;5036841;28;20045;-81